createdAt,value
2022-08-27T00:02:24.676Z,75.95
2022-08-27T00:07:28.847Z,77.03
2022-08-27T00:12:32.906Z,77.83
2022-08-27T00:17:38.294Z,77.99
2022-08-27T00:22:47.149Z,77.93
2022-08-27T00:27:48.983Z,78.35
2022-08-27T00:32:57.496Z,78.44
2022-08-27T00:38:01.517Z,78.93
2022-08-27T00:43:03.568Z,78.85
2022-08-27T00:48:11.961Z,78.78
2022-08-27T00:53:17.362Z,78.54
2022-08-27T00:58:36.347Z,78.94
2022-08-27T01:03:38.770Z,79.21
2022-08-27T01:08:44.212Z,80.16
2022-08-27T01:14:00.873Z,80.44
2022-08-27T01:19:10.486Z,80.93
2022-08-27T01:24:37.652Z,81.19
2022-08-27T01:29:40.182Z,80.90
2022-08-27T01:34:42.252Z,81.23
2022-08-27T01:39:48.030Z,80.54
2022-08-27T01:44:55.355Z,80.57
2022-08-27T01:49:58.484Z,79.80
2022-08-27T01:55:05.724Z,80.24
2022-08-27T02:00:21.346Z,80.47
2022-08-27T02:05:27.432Z,80.42
2022-08-27T02:10:38.581Z,80.27
2022-08-27T02:15:42.232Z,79.33
2022-08-27T02:20:46.182Z,79.31
2022-08-27T02:25:51.222Z,79.50
2022-08-27T02:30:56.614Z,79.70
2022-08-27T02:36:03.077Z,79.54
2022-08-27T02:41:09.373Z,80.44
2022-08-27T02:46:12.275Z,79.51
2022-08-27T02:51:16.318Z,79.80
2022-08-27T02:56:21.696Z,79.55
2022-08-27T03:01:26.551Z,80.11
2022-08-27T03:06:31.797Z,79.80
2022-08-27T03:11:36.055Z,80.51
2022-08-27T03:16:38.628Z,81.37
2022-08-27T03:21:41.797Z,80.53
2022-08-27T03:26:53.880Z,81.02
2022-08-27T03:31:59.399Z,81.46
2022-08-27T03:37:03.461Z,81.83
2022-08-27T03:42:10.531Z,81.44
2022-08-27T03:47:18.346Z,81.45
2022-08-27T03:52:22.567Z,80.10
2022-08-27T03:57:28.959Z,80.57
2022-08-27T04:02:33.400Z,80.58
2022-08-27T04:07:38.423Z,79.94
2022-08-27T04:12:43.011Z,79.66
2022-08-27T04:17:49.186Z,80.19
2022-08-27T04:22:55.738Z,80.11
2022-08-27T04:28:02.597Z,80.41
2022-08-27T04:33:04.653Z,80.28
2022-08-27T04:38:09.586Z,79.99
2022-08-27T04:43:17.647Z,79.70
2022-08-27T04:48:19.684Z,78.30
2022-08-27T04:53:23.849Z,78.20
2022-08-27T04:58:28.162Z,77.25
2022-08-27T05:03:33.339Z,78.65
2022-08-27T05:08:37.333Z,78.27
2022-08-27T05:13:39.346Z,78.33
2022-08-27T05:18:48.928Z,78.44
2022-08-27T05:23:51.784Z,78.55
2022-08-27T05:28:56.149Z,79.21
2022-08-27T05:34:00.655Z,79.67
2022-08-27T05:39:07.748Z,78.76
2022-08-27T05:49:37.878Z,79.35
2022-08-27T05:54:46.977Z,79.40
2022-08-27T06:00:15.754Z,79.28
2022-08-27T06:05:20.127Z,78.63
2022-08-27T06:10:31.915Z,78.63
2022-08-27T06:15:33.856Z,78.31
2022-08-27T06:20:35.749Z,78.48
2022-08-27T06:25:40.655Z,79.25
2022-08-27T06:30:47.420Z,78.56
2022-08-27T06:35:51.416Z,78.34
2022-08-27T06:40:56.635Z,77.66
2022-08-27T06:46:06.378Z,78.44
2022-08-27T06:51:20.034Z,76.82
2022-08-27T06:56:22.470Z,76.39
2022-08-27T07:01:32.734Z,74.75
2022-08-27T07:06:35.691Z,74.94
2022-08-27T07:11:47.638Z,75.24
2022-08-27T07:16:51.071Z,75.38
2022-08-27T07:21:57.084Z,75.37
2022-08-27T07:26:59.013Z,75.49
2022-08-27T07:32:06.096Z,75.75
2022-08-27T07:37:12.408Z,75.24
2022-08-27T07:42:32.772Z,75.48
2022-08-27T07:47:35.976Z,74.34
2022-08-27T07:52:37.893Z,74.09
2022-08-27T07:57:40.510Z,74.08
2022-08-27T08:02:47.556Z,73.01
2022-08-27T08:07:52.136Z,73.42
2022-08-27T08:12:56.247Z,74.40
2022-08-27T08:18:00.435Z,74.05
2022-08-27T08:23:03.122Z,73.77
2022-08-27T08:28:07.589Z,73.29
2022-08-27T08:33:09.545Z,71.77
2022-08-27T08:38:16.232Z,72.26
2022-08-27T08:43:35.751Z,71.49
2022-08-27T08:48:41.437Z,70.63
2022-08-27T08:54:04.144Z,71.18
2022-08-27T08:59:14.421Z,71.26
2022-08-27T09:04:16.411Z,70.68
2022-08-27T09:09:30.354Z,69.43
2022-08-27T09:14:46.425Z,68.51
2022-08-27T09:19:48.302Z,68.64
2022-08-27T09:25:25.935Z,68.02
2022-08-27T09:30:32.157Z,68.28
2022-08-27T09:35:42.860Z,68.74
2022-08-27T09:40:49.615Z,67.53
2022-08-27T09:45:58.271Z,67.80
2022-08-27T09:51:04.446Z,67.30
2022-08-27T09:56:11.329Z,65.59
2022-08-27T10:01:21.317Z,64.26
2022-08-27T10:06:28.137Z,64.15
2022-08-27T10:11:35.658Z,63.33
2022-08-27T10:16:52.665Z,62.07
2022-08-27T10:22:18.136Z,62.08
2022-08-27T10:27:29.792Z,61.65
2022-08-27T10:33:02.940Z,60.77
2022-08-27T10:38:17.082Z,60.68
2022-08-27T10:43:44.124Z,60.04
2022-08-27T10:48:51.884Z,60.70
2022-08-27T10:54:17.479Z,59.33
2022-08-27T10:59:37.405Z,58.06
2022-08-27T11:04:44.371Z,58.62
2022-08-27T11:09:48.115Z,57.68
2022-08-27T11:15:02.493Z,58.12
2022-08-27T11:20:21.096Z,57.74
2022-08-27T11:25:52.999Z,58.53
2022-08-27T11:31:06.979Z,59.13
2022-08-27T11:36:27.618Z,59.49
2022-08-27T11:41:50.799Z,57.97
2022-08-27T11:46:58.913Z,57.37
2022-08-27T11:52:07.429Z,55.36
2022-08-27T11:57:27.923Z,54.33
2022-08-27T12:02:35.692Z,53.60
2022-08-27T12:07:45.049Z,54.03
2022-08-27T12:13:10.045Z,55.24
2022-08-27T12:18:43.617Z,53.29
2022-08-27T12:24:02.957Z,54.41
2022-08-27T12:29:24.445Z,53.71
2022-08-27T12:34:30.103Z,55.79
2022-08-27T12:39:38.340Z,54.47
2022-08-27T12:44:40.219Z,55.05
2022-08-27T12:50:00.990Z,55.66
2022-08-27T12:55:14.435Z,54.18
2022-08-27T13:00:22.079Z,54.24
2022-08-27T13:05:43.103Z,52.43
2022-08-27T13:10:52.243Z,52.33
2022-08-27T13:15:59.494Z,52.11
2022-08-27T13:21:22.939Z,51.17
2022-08-27T13:26:29.630Z,50.85
2022-08-27T13:31:34.720Z,50.93
2022-08-27T13:37:21.152Z,51.71
2022-08-27T13:42:25.244Z,51.34
2022-08-27T13:47:42.309Z,50.56
2022-08-27T13:53:03.622Z,50.09
2022-08-27T13:58:20.406Z,49.25
2022-08-27T14:03:34.568Z,49.59
2022-08-27T14:08:36.522Z,50.40
2022-08-27T14:13:46.583Z,50.54
2022-08-27T14:19:06.607Z,52.60
2022-08-27T14:29:11.841Z,52.85
2022-08-27T14:34:16.449Z,50.42
2022-08-27T14:39:26.471Z,52.47
2022-08-27T14:44:33.790Z,48.11
2022-08-27T14:49:39.149Z,50.85
2022-08-27T14:54:44.219Z,52.15
2022-08-27T14:59:47.298Z,50.36
2022-08-27T15:04:49.352Z,49.90
2022-08-27T15:09:58.247Z,50.28
2022-08-27T15:15:00.064Z,51.47
2022-08-27T15:20:13.703Z,53.17
2022-08-27T15:25:27.487Z,53.62
2022-08-27T15:30:30.268Z,54.23
2022-08-27T15:35:34.889Z,54.60
2022-08-27T15:40:41.792Z,54.39
2022-08-27T15:45:50.346Z,53.47
2022-08-27T15:50:57.140Z,51.21
2022-08-27T15:56:03.170Z,51.54
2022-08-27T16:01:11.486Z,50.11
2022-08-27T16:06:18.844Z,50.10
2022-08-27T16:11:22.889Z,51.67
2022-08-27T16:16:32.083Z,51.99
2022-08-27T16:21:35.149Z,53.07
2022-08-27T16:26:48.985Z,53.94
2022-08-27T16:31:59.279Z,54.34
2022-08-27T16:37:05.612Z,54.76
2022-08-27T16:42:10.731Z,56.03
2022-08-27T16:47:15.387Z,56.11
2022-08-27T16:52:23.586Z,57.39
2022-08-27T16:57:29.698Z,56.81
2022-08-27T17:02:38.036Z,57.76
2022-08-27T17:07:48.209Z,58.21
2022-08-27T17:12:50.895Z,58.97
2022-08-27T17:17:57.959Z,59.05
2022-08-27T17:23:04.024Z,59.07
2022-08-27T17:28:07.852Z,59.15
2022-08-27T17:33:13.023Z,60.16
2022-08-27T17:38:19.736Z,59.61
2022-08-27T17:43:22.434Z,59.76
2022-08-27T17:48:26.917Z,61.07
2022-08-27T17:53:28.922Z,60.93
2022-08-27T17:58:35.191Z,61.73
2022-08-27T18:03:44.916Z,62.75
2022-08-27T18:09:01.053Z,61.99
2022-08-27T18:14:05.012Z,63.64
2022-08-27T18:19:08.823Z,62.81
2022-08-27T18:24:13.615Z,62.08
2022-08-27T18:29:26.409Z,63.37
2022-08-27T18:34:29.184Z,63.41
2022-08-27T18:39:39.426Z,63.46
2022-08-27T18:44:45.877Z,64.22
2022-08-27T18:49:50.204Z,63.52
2022-08-27T18:54:54.358Z,64.89
2022-08-27T18:59:59.367Z,65.33
2022-08-27T19:05:03.356Z,64.38
2022-08-27T19:10:06.629Z,64.39
2022-08-27T19:15:11.531Z,65.74
2022-08-27T19:20:13.519Z,65.71
2022-08-27T19:25:20.161Z,66.26
2022-08-27T19:30:28.806Z,66.72
2022-08-27T19:35:34.728Z,66.78
2022-08-27T19:40:42.946Z,68.08
2022-08-27T19:45:48.814Z,67.74
2022-08-27T19:50:51.000Z,68.64
2022-08-27T19:55:55.266Z,68.21
2022-08-27T20:00:59.935Z,68.12
2022-08-27T20:06:02.168Z,68.54
2022-08-27T20:11:11.663Z,68.20
2022-08-27T20:16:18.265Z,68.71
2022-08-27T20:21:22.695Z,69.18
2022-08-27T20:26:32.809Z,68.54
2022-08-27T20:31:35.234Z,68.85
2022-08-27T20:36:39.656Z,68.83
2022-08-27T20:41:41.934Z,69.04
2022-08-27T20:46:43.998Z,69.39
2022-08-27T20:52:03.042Z,69.14
2022-08-27T20:57:09.502Z,69.03
2022-08-27T21:02:13.480Z,69.64
2022-08-27T21:07:18.641Z,69.72
2022-08-27T21:12:22.742Z,69.25
2022-08-27T21:17:27.749Z,68.83
2022-08-27T21:22:34.443Z,69.48
2022-08-27T21:27:36.679Z,68.67
2022-08-27T21:32:41.697Z,69.01
2022-08-27T21:37:43.770Z,69.51
2022-08-27T21:42:45.878Z,69.44
2022-08-27T21:47:48.218Z,69.29
2022-08-27T21:52:53.605Z,68.79
2022-08-27T21:57:55.414Z,69.41
2022-08-27T22:02:59.664Z,69.38
2022-08-27T22:08:10.225Z,69.58
2022-08-27T22:13:15.339Z,70.73
2022-08-27T22:18:23.121Z,71.08
2022-08-27T22:23:28.313Z,71.03
2022-08-27T22:28:32.274Z,70.73
2022-08-27T22:33:36.280Z,71.26
2022-08-27T22:38:38.057Z,71.69
2022-08-27T22:43:40.406Z,71.05
2022-08-27T22:48:45.894Z,72.06
2022-08-27T22:53:51.068Z,71.35
2022-08-27T22:58:52.792Z,71.69
2022-08-27T23:03:57.603Z,72.55
2022-08-27T23:09:00.910Z,72.38
2022-08-27T23:14:05.606Z,71.90
2022-08-27T23:19:11.392Z,72.23
2022-08-27T23:24:21.877Z,71.86
2022-08-27T23:29:26.267Z,72.33
2022-08-27T23:34:31.993Z,71.88
2022-08-27T23:39:39.729Z,72.49
2022-08-27T23:44:42.000Z,72.18
2022-08-27T23:49:46.718Z,72.02
2022-08-27T23:54:50.795Z,72.64
2022-08-27T23:59:54.632Z,72.46
